Time;durP1;ratioP1;P1;durP2;ratioP2;P2;SDS_P1;SDS_P2;PMS_P1;PMS_P2;Temp;Humidity;BMP_temperature;BMP_pressure;BME280_temperature;BME280_humidity;BME280_pressure;Samples;Min_cycle;Max_cycle;Signal;HPM_P1;HPM_P2
2021/09/13 00:02:28;;;;;;;12.68;7.18;;;;;;;;;;4345353;33;20159;-85
2021/09/13 00:04:56;;;;;;;9.77;6.85;;;;;;;;;;4347159;33;20136;-85
2021/09/13 00:07:22;;;;;;;9.48;6.37;;;;;;;;;;4348427;33;20196;-85
2021/09/13 00:09:47;;;;;;;10.45;6.62;;;;;;;;;;4334158;33;20170;-84
2021/09/13 00:12:18;;;;;;;12.43;7.90;;;;;;;;;;4349058;33;20143;-84
2021/09/13 00:14:43;;;;;;;10.50;6.50;;;;;;;;;;4348338;33;20166;-85
2021/09/13 00:17:09;;;;;;;7.68;6.18;;;;;;;;;;4348171;33;20545;-84
2021/09/13 00:19:34;;;;;;;9.45;6.68;;;;;;;;;;4348327;33;20552;-84
2021/09/13 00:22:03;;;;;;;12.37;7.15;;;;;;;;;;4347715;33;20151;-84
2021/09/13 00:24:31;;;;;;;10.85;7.00;;;;;;;;;;4347805;33;20191;-84
2021/09/13 00:26:57;;;;;;;12.90;7.85;;;;;;;;;;4348122;33;20189;-84
2021/09/13 00:29:22;;;;;;;10.27;7.70;;;;;;;;;;4347730;33;20135;-84
2021/09/13 00:31:47;;;;;;;11.07;7.50;;;;;;;;;;4348474;33;20526;-85
2021/09/13 00:34:20;;;;;;;11.50;7.95;;;;;;;;;;4348705;33;20549;-84
2021/09/13 00:36:48;;;;;;;12.10;7.82;;;;;;;;;;4334495;33;20167;-84
2021/09/13 00:39:13;;;;;;;11.88;8.13;;;;;;;;;;4334455;33;20171;-84
2021/09/13 00:41:38;;;;;;;10.32;7.78;;;;;;;;;;4348591;33;20581;-85
2021/09/13 00:44:04;;;;;;;9.85;7.03;;;;;;;;;;4347759;33;20197;-85
2021/09/13 00:46:29;;;;;;;9.25;6.50;;;;;;;;;;4347709;33;20135;-84
2021/09/13 00:48:54;;;;;;;11.55;6.82;;;;;;;;;;4334305;33;20214;-85
2021/09/13 00:51:23;;;;;;;10.02;6.28;;;;;;;;;;4347668;33;20159;-84
2021/09/13 00:53:51;;;;;;;11.43;6.97;;;;;;;;;;4348332;33;20207;-84
2021/09/13 00:56:19;;;;;;;12.13;8.20;;;;;;;;;;4347193;33;20193;-84
2021/09/13 00:58:44;;;;;;;10.27;7.07;;;;;;;;;;4344348;33;20151;-84
2021/09/13 01:01:10;;;;;;;14.45;8.27;;;;;;;;;;4332977;33;20591;-84
2021/09/13 01:03:43;;;;;;;11.38;6.47;;;;;;;;;;4319386;33;20194;-84
2021/09/13 01:06:08;;;;;;;10.95;6.62;;;;;;;;;;4333317;33;20159;-85
2021/09/13 01:08:50;;;;;;;12.88;7.28;;;;;;;;;;4332998;33;20148;-85
2021/09/13 01:11:25;;;;;;;10.40;7.20;;;;;;;;;;4332680;33;20132;-85
2021/09/13 01:13:59;;;;;;;8.18;6.70;;;;;;;;;;4333146;33;20245;-84
2021/09/13 01:16:24;;;;;;;14.50;7.28;;;;;;;;;;4331559;33;20501;-84
2021/09/13 01:18:52;;;;;;;10.23;6.90;;;;;;;;;;4333265;33;20550;-85
2021/09/13 01:21:25;;;;;;;14.00;7.15;;;;;;;;;;4321401;33;20547;-84
2021/09/13 01:26:45;;;;;;;10.85;6.35;;;;;;;;;;4326893;33;20212;-84
2021/09/13 01:29:13;;;;;;;8.65;4.50;;;;;;;;;;4332849;33;20210;-85
2021/09/13 01:31:38;;;;;;;7.18;4.40;;;;;;;;;;4318877;33;20490;-84
2021/09/13 01:34:13;;;;;;;7.00;4.25;;;;;;;;;;4318721;33;20167;-85
2021/09/13 01:36:41;;;;;;;5.95;4.22;;;;;;;;;;4319069;33;20208;-84
2021/09/13 01:39:12;;;;;;;6.65;3.80;;;;;;;;;;4332179;33;20131;-84
2021/09/13 01:41:40;;;;;;;5.57;4.40;;;;;;;;;;4318703;33;20565;-85
2021/09/13 01:44:05;;;;;;;8.82;4.85;;;;;;;;;;4318759;33;20529;-85
2021/09/13 01:46:31;;;;;;;7.03;5.00;;;;;;;;;;4318482;33;20172;-84
2021/09/13 01:48:56;;;;;;;7.82;4.93;;;;;;;;;;4331935;33;20170;-84
2021/09/13 01:51:21;;;;;;;10.48;5.47;;;;;;;;;;4332000;33;20230;-84
2021/09/13 01:53:47;;;;;;;9.00;5.05;;;;;;;;;;4332503;33;20140;-85
2021/09/13 01:56:13;;;;;;;9.68;4.55;;;;;;;;;;4331777;33;20152;-84
2021/09/13 01:58:38;;;;;;;6.97;4.60;;;;;;;;;;4331886;33;20135;-84
2021/09/13 02:01:04;;;;;;;6.93;4.47;;;;;;;;;;4332459;33;20490;-84
2021/09/13 02:03:29;;;;;;;8.40;5.03;;;;;;;;;;4331819;33;20141;-84
2021/09/13 02:05:54;;;;;;;8.95;5.37;;;;;;;;;;4318820;33;20628;-84
2021/09/13 02:08:23;;;;;;;11.12;5.82;;;;;;;;;;4332359;33;20170;-84
2021/09/13 02:10:54;;;;;;;9.07;6.12;;;;;;;;;;4319898;33;20509;-84
2021/09/13 02:13:19;;;;;;;8.32;5.70;;;;;;;;;;4334341;33;20551;-84
2021/09/13 02:15:45;;;;;;;9.00;5.97;;;;;;;;;;4333580;33;20148;-84
2021/09/13 02:18:10;;;;;;;10.25;7.22;;;;;;;;;;4320568;33;20213;-83
2021/09/13 02:20:35;;;;;;;11.18;7.20;;;;;;;;;;4338969;33;20132;-84
2021/09/13 02:23:00;;;;;;;11.10;7.47;;;;;;;;;;4338570;33;20140;-84
2021/09/13 02:25:26;;;;;;;12.48;7.97;;;;;;;;;;4334517;33;20194;-84
2021/09/13 02:27:51;;;;;;;11.07;7.95;;;;;;;;;;4331378;33;20404;-84
2021/09/13 02:30:19;;;;;;;10.13;7.32;;;;;;;;;;4318112;33;20247;-84
2021/09/13 02:32:45;;;;;;;15.27;8.32;;;;;;;;;;4331745;33;20140;-84
2021/09/13 02:35:12;;;;;;;14.75;7.87;;;;;;;;;;4318021;33;20197;-84
2021/09/13 02:37:38;;;;;;;13.40;7.95;;;;;;;;;;4331457;33;20139;-84
2021/09/13 02:40:04;;;;;;;11.10;7.10;;;;;;;;;;4317637;33;20246;-84
2021/09/13 02:42:30;;;;;;;11.23;7.72;;;;;;;;;;4317782;33;20636;-84
2021/09/13 02:45:01;;;;;;;11.35;7.80;;;;;;;;;;4331351;33;20192;-84
2021/09/13 02:47:26;;;;;;;13.48;8.25;;;;;;;;;;4331445;33;20454;-84
2021/09/13 02:49:52;;;;;;;10.77;6.87;;;;;;;;;;4317732;33;20195;-84
2021/09/13 02:52:17;;;;;;;13.45;8.02;;;;;;;;;;4330984;33;20163;-85
2021/09/13 02:54:45;;;;;;;13.93;7.28;;;;;;;;;;4331687;33;20554;-84
2021/09/13 02:57:10;;;;;;;11.32;7.07;;;;;;;;;;4330889;33;20135;-85
2021/09/13 02:59:35;;;;;;;12.90;7.80;;;;;;;;;;4331396;33;20202;-84
2021/09/13 03:02:01;;;;;;;14.30;7.40;;;;;;;;;;4317750;33;20160;-84
2021/09/13 03:04:26;;;;;;;12.05;7.60;;;;;;;;;;4331325;33;20167;-84
2021/09/13 03:06:54;;;;;;;13.57;7.82;;;;;;;;;;4331355;33;20174;-85
2021/09/13 03:09:28;;;;;;;9.02;6.47;;;;;;;;;;4330734;33;20144;-85
2021/09/13 03:11:57;;;;;;;12.48;7.35;;;;;;;;;;4331259;33;20132;-85
2021/09/13 03:14:24;;;;;;;9.93;6.12;;;;;;;;;;4330901;33;20233;-85
2021/09/13 03:16:51;;;;;;;10.35;6.25;;;;;;;;;;4330780;33;20171;-84
2021/09/13 03:19:16;;;;;;;12.75;6.50;;;;;;;;;;4317307;33;20190;-84
2021/09/13 03:21:42;;;;;;;12.95;6.80;;;;;;;;;;4317489;33;20252;-84
2021/09/13 03:24:09;;;;;;;11.77;6.30;;;;;;;;;;4331647;33;20135;-84
2021/09/13 03:26:41;;;;;;;12.15;7.12;;;;;;;;;;4331064;33;20647;-83
2021/09/13 03:29:06;;;;;;;11.18;6.60;;;;;;;;;;4330761;33;20252;-84
2021/09/13 03:31:31;;;;;;;12.45;7.03;;;;;;;;;;4318178;33;20209;-85
2021/09/13 03:34:02;;;;;;;9.45;7.03;;;;;;;;;;4330914;33;20151;-84
2021/09/13 03:36:28;;;;;;;12.93;7.70;;;;;;;;;;4331199;33;20585;-84
2021/09/13 03:39:03;;;;;;;13.25;7.18;;;;;;;;;;4331555;33;20139;-84
2021/09/13 03:41:28;;;;;;;9.50;7.35;;;;;;;;;;4334983;33;20162;-84
2021/09/13 03:43:53;;;;;;;12.00;7.55;;;;;;;;;;4334117;33;20567;-84
2021/09/13 03:46:22;;;;;;;11.68;7.62;;;;;;;;;;4333978;33;20136;-85
2021/09/13 03:48:53;;;;;;;9.77;7.47;;;;;;;;;;4333923;33;20169;-85
2021/09/13 03:51:18;;;;;;;12.63;7.55;;;;;;;;;;4333939;33;20555;-86
2021/09/13 03:53:43;;;;;;;13.38;7.50;;;;;;;;;;4333915;33;20155;-84
2021/09/13 03:56:11;;;;;;;10.73;6.70;;;;;;;;;;4334041;33;20135;-84
2021/09/13 03:58:36;;;;;;;11.77;7.18;;;;;;;;;;4333749;33;20186;-84
2021/09/13 04:01:02;;;;;;;11.43;6.62;;;;;;;;;;4334163;33;20477;-84
2021/09/13 04:03:36;;;;;;;11.82;8.15;;;;;;;;;;4333345;33;20140;-84
2021/09/13 04:06:03;;;;;;;13.48;7.50;;;;;;;;;;4334366;33;20178;-84
2021/09/13 04:11:19;;;;;;;13.05;8.57;;;;;;;;;;4333383;33;20136;-86
2021/09/13 04:13:44;;;;;;;14.65;9.95;;;;;;;;;;4333116;33;20476;-85
2021/09/13 04:16:10;;;;;;;17.52;9.98;;;;;;;;;;4320263;33;20230;-84
2021/09/13 04:18:35;;;;;;;17.83;10.50;;;;;;;;;;4333084;33;20558;-84
2021/09/13 04:21:00;;;;;;;16.00;8.95;;;;;;;;;;4333044;33;20219;-84
2021/09/13 04:23:26;;;;;;;16.48;9.73;;;;;;;;;;4333556;33;20479;-84
2021/09/13 04:25:54;;;;;;;16.48;9.45;;;;;;;;;;4319724;33;20191;-85
2021/09/13 04:28:19;;;;;;;15.48;9.50;;;;;;;;;;4333268;33;20178;-84
2021/09/13 04:30:44;;;;;;;14.82;8.95;;;;;;;;;;4333469;33;20137;-84
2021/09/13 04:33:10;;;;;;;16.48;9.52;;;;;;;;;;4333474;33;20159;-85
2021/09/13 04:35:38;;;;;;;17.40;9.18;;;;;;;;;;4332985;33;20147;-85
2021/09/13 04:38:03;;;;;;;13.15;9.10;;;;;;;;;;4333120;33;20167;-84
2021/09/13 04:40:29;;;;;;;13.82;9.25;;;;;;;;;;4319512;33;20235;-83
2021/09/13 04:42:54;;;;;;;14.10;8.48;;;;;;;;;;4332780;33;20166;-84
2021/09/13 04:45:20;;;;;;;14.25;9.07;;;;;;;;;;4319453;33;20737;-84
2021/09/13 04:47:45;;;;;;;15.57;9.20;;;;;;;;;;4319069;33;20206;-84
2021/09/13 04:50:11;;;;;;;13.88;9.02;;;;;;;;;;4332426;33;20247;-84
2021/09/13 04:52:36;;;;;;;16.70;8.93;;;;;;;;;;4319291;33;20234;-83
2021/09/13 04:55:01;;;;;;;12.52;7.95;;;;;;;;;;4319245;33;20168;-78
2021/09/13 04:57:26;;;;;;;14.55;8.50;;;;;;;;;;4333038;33;20172;-83
2021/09/13 04:59:52;;;;;;;15.38;8.95;;;;;;;;;;4319540;33;20667;-85
2021/09/13 05:02:20;;;;;;;13.35;8.30;;;;;;;;;;4332952;33;20152;-84
2021/09/13 05:04:55;;;;;;;13.32;8.88;;;;;;;;;;4319759;33;20183;-86
2021/09/13 05:07:21;;;;;;;12.57;7.75;;;;;;;;;;4332484;33;20147;-84
2021/09/13 05:10:11;;;;;;;11.02;7.40;;;;;;;;;;4333249;33;20198;-84
2021/09/13 05:12:36;;;;;;;11.88;7.87;;;;;;;;;;4332798;33;20214;-84
2021/09/13 05:15:05;;;;;;;10.55;7.35;;;;;;;;;;4332717;33;20198;-85
2021/09/13 05:17:30;;;;;;;12.18;6.80;;;;;;;;;;4318815;33;20163;-83
2021/09/13 05:20:04;;;;;;;12.25;7.43;;;;;;;;;;4332322;33;20626;-82
2021/09/13 05:22:37;;;;;;;12.82;7.12;;;;;;;;;;4332761;33;20135;-82
2021/09/13 05:25:03;;;;;;;13.90;7.57;;;;;;;;;;4319136;33;20273;-83
2021/09/13 05:27:59;;;;;;;13.02;7.00;;;;;;;;;;4332353;33;20140;-83
2021/09/13 05:30:48;;;;;;;14.63;6.97;;;;;;;;;;4315093;33;20206;-83
2021/09/13 05:33:35;;;;;;;13.55;6.28;;;;;;;;;;4332033;33;20526;-84
2021/09/13 05:36:27;;;;;;;10.70;6.60;;;;;;;;;;4332126;33;20135;-83
2021/09/13 05:39:03;;;;;;;15.00;7.28;;;;;;;;;;4318857;33;20571;-83
2021/09/13 05:41:28;;;;;;;15.43;7.03;;;;;;;;;;4332683;33;20147;-83
2021/09/13 05:43:54;;;;;;;16.48;7.82;;;;;;;;;;4331650;33;20155;-83
2021/09/13 05:46:25;;;;;;;13.70;7.18;;;;;;;;;;4331848;33;20127;-83
2021/09/13 05:48:51;;;;;;;12.35;6.70;;;;;;;;;;4319022;33;20156;-82
2021/09/13 05:51:45;;;;;;;12.02;7.57;;;;;;;;;;4332197;33;20223;-83
2021/09/13 05:54:11;;;;;;;10.20;6.60;;;;;;;;;;4332137;33;20164;-82
2021/09/13 05:56:36;;;;;;;9.18;6.28;;;;;;;;;;4318277;33;20167;-82
2021/09/13 05:59:01;;;;;;;11.60;6.50;;;;;;;;;;4331982;33;20139;-83
2021/09/13 06:01:26;;;;;;;13.18;7.28;;;;;;;;;;4331074;33;20139;-81
2021/09/13 06:03:54;;;;;;;13.32;6.75;;;;;;;;;;4331593;33;20251;-82
2021/09/13 06:06:29;;;;;;;15.73;6.25;;;;;;;;;;4331661;33;20546;-81
2021/09/13 06:08:55;;;;;;;13.50;6.85;;;;;;;;;;4318050;33;20234;-84
2021/09/13 06:11:26;;;;;;;12.75;7.00;;;;;;;;;;4331694;33;20140;-78
2021/09/13 06:13:51;;;;;;;11.45;6.72;;;;;;;;;;4331736;33;20534;-84
2021/09/13 06:16:16;;;;;;;11.88;6.82;;;;;;;;;;4331656;33;20219;-84
2021/09/13 06:18:42;;;;;;;10.93;6.78;;;;;;;;;;4331394;33;20171;-82
2021/09/13 06:21:07;;;;;;;21.12;8.15;;;;;;;;;;4318248;33;20156;-84
2021/09/13 06:23:32;;;;;;;14.75;7.07;;;;;;;;;;4317785;33;20198;-81
2021/09/13 06:26:11;;;;;;;14.48;6.55;;;;;;;;;;4331002;33;20162;-83
2021/09/13 06:28:44;;;;;;;17.15;7.43;;;;;;;;;;4316213;33;20190;-83
2021/09/13 06:31:09;;;;;;;17.17;7.43;;;;;;;;;;4331848;33;20133;-83
2021/09/13 06:33:35;;;;;;;12.90;7.05;;;;;;;;;;4331113;33;20170;-82
2021/09/13 06:36:01;;;;;;;15.75;6.93;;;;;;;;;;4331059;33;20628;-83
2021/09/13 06:38:26;;;;;;;14.68;7.03;;;;;;;;;;4331088;33;20223;-82
2021/09/13 06:40:52;;;;;;;13.02;7.25;;;;;;;;;;4331408;33;20136;-81
2021/09/13 06:43:28;;;;;;;14.18;7.30;;;;;;;;;;4331439;33;20171;-80
2021/09/13 06:46:10;;;;;;;14.13;6.43;;;;;;;;;;4330927;33;20201;-83
2021/09/13 06:48:36;;;;;;;15.00;6.43;;;;;;;;;;4317880;33;20464;-83
2021/09/13 06:51:04;;;;;;;10.30;6.72;;;;;;;;;;4331110;33;20129;-84
2021/09/13 06:53:39;;;;;;;16.20;6.30;;;;;;;;;;4332029;33;20144;-83
2021/09/13 06:56:10;;;;;;;13.65;4.68;;;;;;;;;;4321747;33;20543;-84
2021/09/13 06:58:41;;;;;;;16.42;5.47;;;;;;;;;;4331724;33;20171;-81
2021/09/13 07:01:07;;;;;;;10.70;5.68;;;;;;;;;;4331238;33;20158;-84
2021/09/13 07:03:35;;;;;;;8.18;5.00;;;;;;;;;;4331205;33;20155;-84
2021/09/13 07:06:01;;;;;;;11.68;5.53;;;;;;;;;;4330835;33;20162;-83
2021/09/13 07:08:26;;;;;;;11.70;5.50;;;;;;;;;;4330912;33;20140;-83
2021/09/13 07:10:53;;;;;;;13.48;6.07;;;;;;;;;;4331179;33;20132;-84
2021/09/13 07:13:31;;;;;;;10.27;5.90;;;;;;;;;;4317739;33;20215;-84
2021/09/13 07:15:56;;;;;;;12.50;5.28;;;;;;;;;;4333559;33;20135;-83
2021/09/13 07:18:29;;;;;;;13.13;6.32;;;;;;;;;;4333140;33;20159;-83
2021/09/13 07:21:00;;;;;;;12.73;5.75;;;;;;;;;;4332318;33;20151;-85
2021/09/13 07:23:28;;;;;;;10.18;4.90;;;;;;;;;;4332137;33;20206;-83
2021/09/13 07:25:59;;;;;;;9.15;5.03;;;;;;;;;;4331931;33;20127;-84
2021/09/13 07:28:24;;;;;;;8.95;5.55;;;;;;;;;;4332219;33;20207;-83
2021/09/13 07:30:50;;;;;;;11.60;6.32;;;;;;;;;;4331591;33;20428;-84
2021/09/13 07:33:15;;;;;;;15.02;5.43;;;;;;;;;;4332065;33;20222;-84
2021/09/13 07:35:43;;;;;;;14.77;5.78;;;;;;;;;;4331848;33;20136;-82
2021/09/13 07:38:08;;;;;;;8.48;5.28;;;;;;;;;;4332658;33;20158;-83
2021/09/13 07:40:34;;;;;;;13.30;6.10;;;;;;;;;;4332130;33;20128;-84
2021/09/13 07:42:59;;;;;;;10.93;4.90;;;;;;;;;;4331294;33;20499;-83
2021/09/13 07:45:27;;;;;;;8.52;4.95;;;;;;;;;;4330742;33;20209;-84
2021/09/13 07:47:56;;;;;;;9.77;4.32;;;;;;;;;;4330790;33;20188;-84
2021/09/13 07:50:26;;;;;;;11.30;5.22;;;;;;;;;;4330821;33;20124;-83
2021/09/13 07:58:59;;;;;;;11.82;4.65;;;;;;;;;;4242839;33;20205;-84
2021/09/13 08:01:30;;;;;;;5.25;3.40;;;;;;;;;;4243475;33;20160;-85
2021/09/13 08:06:42;;;;;;;8.60;3.45;;;;;;;;;;4272507;33;20496;-84
2021/09/13 08:09:11;;;;;;;8.15;3.45;;;;;;;;;;4334536;33;20482;-86
2021/09/13 08:11:50;;;;;;;6.62;3.28;;;;;;;;;;4341528;33;20140;-87
2021/09/13 08:14:15;;;;;;;4.97;2.62;;;;;;;;;;4340134;33;20173;-85
2021/09/13 08:16:41;;;;;;;6.68;2.40;;;;;;;;;;4336465;33;20542;-85
2021/09/13 08:19:06;;;;;;;5.37;3.08;;;;;;;;;;4337629;33;20131;-85
2021/09/13 08:21:34;;;;;;;9.40;3.65;;;;;;;;;;4335618;33;20136;-85
2021/09/13 08:24:02;;;;;;;8.38;2.60;;;;;;;;;;4332251;33;20167;-86
2021/09/13 08:26:27;;;;;;;5.95;2.60;;;;;;;;;;4326796;33;20221;-83
2021/09/13 08:28:55;;;;;;;6.65;2.60;;;;;;;;;;4340912;33;20549;-84
2021/09/13 08:31:23;;;;;;;10.23;4.55;;;;;;;;;;4340775;33;20187;-84
2021/09/13 08:33:48;;;;;;;5.25;2.15;;;;;;;;;;4340956;33;20250;-84
2021/09/13 08:36:20;;;;;;;4.80;2.22;;;;;;;;;;4339608;33;20136;-85
2021/09/13 08:38:45;;;;;;;6.90;2.00;;;;;;;;;;4327928;33;20167;-83
2021/09/13 08:41:13;;;;;;;2.75;1.48;;;;;;;;;;4340450;33;20132;-84
2021/09/13 08:43:40;;;;;;;6.87;2.03;;;;;;;;;;4347628;33;20179;-84
2021/09/13 08:46:09;;;;;;;2.53;1.00;;;;;;;;;;4341197;33;20154;-83
2021/09/13 08:48:47;;;;;;;4.90;1.20;;;;;;;;;;4337347;33;20123;-84
2021/09/13 08:53:52;;;;;;;4.62;1.42;;;;;;;;;;4333406;33;20663;-84
2021/09/13 08:56:18;;;;;;;4.43;1.25;;;;;;;;;;4333758;33;20142;-85
2021/09/13 08:58:47;;;;;;;4.35;1.70;;;;;;;;;;4333231;33;20451;-84
2021/09/13 09:01:13;;;;;;;3.78;1.48;;;;;;;;;;4333820;33;20140;-82
2021/09/13 09:03:51;;;;;;;7.32;1.67;;;;;;;;;;4333408;33;20263;-84
2021/09/13 09:06:40;;;;;;;7.18;3.42;;;;;;;;;;4333559;33;20193;-83
2021/09/13 09:09:06;;;;;;;3.55;1.00;;;;;;;;;;4320018;33;20504;-83
2021/09/13 09:11:53;;;;;;;3.55;1.30;;;;;;;;;;4336649;33;20191;-83
2021/09/13 09:17:32;;;;;;;2.60;1.02;;;;;;;;;;4277713;33;20164;-84
2021/09/13 09:20:07;;;;;;;3.72;1.10;;;;;;;;;;4335276;33;20226;-83
2021/09/13 09:22:36;;;;;;;2.55;1.35;;;;;;;;;;4336346;33;20687;-84
2021/09/13 09:25:28;;;;;;;4.15;1.90;;;;;;;;;;4319653;33;20148;-83
2021/09/13 09:28:01;;;;;;;5.28;2.28;;;;;;;;;;4332044;33;20194;-84
2021/09/13 09:30:34;;;;;;;4.43;2.30;;;;;;;;;;4318988;33;20156;-83
2021/09/13 09:33:05;;;;;;;10.65;4.20;;;;;;;;;;4332901;33;20260;-84
2021/09/13 09:35:39;;;;;;;4.32;2.90;;;;;;;;;;4333210;33;20157;-84
2021/09/13 09:38:28;;;;;;;7.78;3.53;;;;;;;;;;4318647;33;20179;-80
2021/09/13 09:41:06;;;;;;;6.03;3.20;;;;;;;;;;4322237;33;20206;-84
2021/09/13 09:43:46;;;;;;;4.15;3.00;;;;;;;;;;4332599;33;20162;-83
2021/09/13 09:46:12;;;;;;;6.00;2.85;;;;;;;;;;4319326;33;20195;-83
2021/09/13 09:48:37;;;;;;;4.15;2.65;;;;;;;;;;4332371;33;20620;-84
2021/09/13 09:51:22;;;;;;;5.25;2.70;;;;;;;;;;4332008;33;20626;-81
2021/09/13 09:53:48;;;;;;;4.55;2.97;;;;;;;;;;4332043;33;20187;-83
2021/09/13 09:56:13;;;;;;;8.23;2.92;;;;;;;;;;4318279;33;20502;-82
2021/09/13 09:58:57;;;;;;;6.15;2.75;;;;;;;;;;4332260;33;20128;-82
2021/09/13 10:01:29;;;;;;;7.05;2.75;;;;;;;;;;4331670;33;20193;-82
2021/09/13 10:04:15;;;;;;;;;;;;;;;;;;;;;
2021/09/13 10:07:07;;;;;;;5.05;2.50;;;;;;;;;;4332016;33;20476;-83
2021/09/13 10:09:33;;;;;;;2.75;1.10;;;;;;;;;;4332005;33;20184;-82
2021/09/13 10:12:00;;;;;;;1.77;1.15;;;;;;;;;;4331418;33;20135;-83
2021/09/13 10:14:27;;;;;;;3.42;1.20;;;;;;;;;;4331677;33;20147;-82
2021/09/13 10:16:55;;;;;;;4.28;1.20;;;;;;;;;;4331674;33;20545;-84
2021/09/13 10:19:26;;;;;;;5.57;1.37;;;;;;;;;;4331489;33;20446;-84
2021/09/13 10:21:55;;;;;;;2.72;1.20;;;;;;;;;;4331793;33;20163;-82
2021/09/13 10:24:31;;;;;;;5.60;1.50;;;;;;;;;;4331822;33;20149;-85
2021/09/13 10:27:08;;;;;;;1.87;1.20;;;;;;;;;;4331584;33;20278;-81
2021/09/13 10:29:42;;;;;;;1.70;1.30;;;;;;;;;;4331596;33;20167;-83
2021/09/13 10:32:08;;;;;;;1.95;1.10;;;;;;;;;;4331742;33;20165;-83
2021/09/13 10:34:40;;;;;;;3.95;1.33;;;;;;;;;;4331519;33;20206;-84
2021/09/13 10:37:05;;;;;;;1.77;0.90;;;;;;;;;;4331126;33;20137;-80
2021/09/13 10:39:50;;;;;;;3.27;1.10;;;;;;;;;;4331724;33;20163;-82
2021/09/13 10:42:34;;;;;;;2.37;1.10;;;;;;;;;;4331547;33;20236;-83
2021/09/13 10:45:20;;;;;;;5.45;1.95;;;;;;;;;;4330964;33;20218;-83
2021/09/13 10:47:57;;;;;;;3.53;1.15;;;;;;;;;;4318122;33;20163;-85
2021/09/13 10:50:26;;;;;;;2.42;0.98;;;;;;;;;;4317757;33;20168;-83
2021/09/13 10:52:53;;;;;;;3.28;1.10;;;;;;;;;;4331115;33;20194;-83
2021/09/13 10:55:20;;;;;;;4.55;1.33;;;;;;;;;;4317746;33;20507;-83
2021/09/13 10:57:58;;;;;;;2.17;1.12;;;;;;;;;;4317132;33;20172;-84
2021/09/13 11:00:53;;;;;;;3.60;1.35;;;;;;;;;;4330895;33;20565;-83
2021/09/13 11:07:00;;;;;;;2.85;1.42;;;;;;;;;;4242908;33;20181;-82
2021/09/13 11:09:26;;;;;;;3.35;1.67;;;;;;;;;;4240490;33;20204;-84
2021/09/13 11:11:54;;;;;;;6.30;2.17;;;;;;;;;;4315225;33;20155;-84
2021/09/13 11:14:51;;;;;;;4.60;2.05;;;;;;;;;;4330750;33;20155;-85
2021/09/13 11:17:19;;;;;;;5.75;2.35;;;;;;;;;;4330901;33;20483;-83
2021/09/13 11:19:45;;;;;;;4.72;2.10;;;;;;;;;;4330388;33;20474;-84
2021/09/13 11:22:10;;;;;;;4.85;1.67;;;;;;;;;;4317383;33;20214;-84
2021/09/13 11:24:39;;;;;;;2.45;1.60;;;;;;;;;;4330875;33;20167;-82
2021/09/13 11:27:05;;;;;;;2.53;1.65;;;;;;;;;;4330802;33;20591;-83
2021/09/13 11:29:46;;;;;;;3.92;1.52;;;;;;;;;;4330615;33;20136;-82
2021/09/13 11:32:12;;;;;;;8.38;1.83;;;;;;;;;;4330528;33;20143;-83
2021/09/13 11:34:45;;;;;;;4.95;1.50;;;;;;;;;;4317296;33;20168;-84
2021/09/13 11:37:25;;;;;;;7.72;1.80;;;;;;;;;;4341678;33;20155;-84
2021/09/13 11:40:04;;;;;;;4.30;1.50;;;;;;;;;;4339378;33;20458;-83
2021/09/13 11:42:31;;;;;;;5.05;1.37;;;;;;;;;;4345490;33;20496;-82
2021/09/13 11:45:07;;;;;;;4.78;1.70;;;;;;;;;;4331467;33;20143;-83
2021/09/13 11:47:40;;;;;;;2.42;1.55;;;;;;;;;;4345731;33;20139;-83
2021/09/13 11:50:35;;;;;;;;;;;;;;;;;;;;;
2021/09/13 11:53:10;;;;;;;2.75;1.33;;;;;;;;;;4345373;33;20151;-82
2021/09/13 11:55:37;;;;;;;5.87;1.80;;;;;;;;;;4345084;33;20169;-84
2021/09/13 12:00:59;;;;;;;4.03;1.58;;;;;;;;;;4325398;33;20186;-84
2021/09/13 12:03:40;;;;;;;4.25;1.27;;;;;;;;;;4347847;33;20143;-85
2021/09/13 12:06:15;;;;;;;3.10;1.02;;;;;;;;;;4348723;33;20178;-84
2021/09/13 12:08:40;;;;;;;2.53;1.00;;;;;;;;;;4348636;33;20554;-83
2021/09/13 12:11:05;;;;;;;1.65;0.93;;;;;;;;;;4348162;33;20155;-84
2021/09/13 12:13:32;;;;;;;2.30;1.25;;;;;;;;;;4334690;33;20172;-84
2021/09/13 12:15:57;;;;;;;2.12;1.00;;;;;;;;;;4347862;33;20185;-83
2021/09/13 12:18:29;;;;;;;6.32;1.50;;;;;;;;;;4348148;33;20616;-83
2021/09/13 12:20:54;;;;;;;4.80;1.35;;;;;;;;;;4349057;33;20580;-83
2021/09/13 12:23:28;;;;;;;2.65;1.08;;;;;;;;;;4347958;33;20140;-82
2021/09/13 12:26:03;;;;;;;4.87;1.10;;;;;;;;;;4320851;33;20195;-83
2021/09/13 12:28:42;;;;;;;4.97;1.20;;;;;;;;;;4332738;33;20032;-82
2021/09/13 12:31:08;;;;;;;3.62;0.90;;;;;;;;;;4333314;33;20154;-82
2021/09/13 12:33:34;;;;;;;1.80;0.90;;;;;;;;;;4319589;33;20253;-84
2021/09/13 12:36:11;;;;;;;2.08;0.90;;;;;;;;;;4333046;33;20174;-79
2021/09/13 12:38:45;;;;;;;2.08;1.10;;;;;;;;;;4333012;33;20502;-83
2021/09/13 12:41:13;;;;;;;1.50;0.90;;;;;;;;;;4333570;33;20139;-82
2021/09/13 12:43:45;;;;;;;1.30;0.70;;;;;;;;;;4333058;33;20519;-81
2021/09/13 12:46:15;;;;;;;3.00;0.60;;;;;;;;;;4332726;33;20140;-84
2021/09/13 12:48:41;;;;;;;2.05;0.77;;;;;;;;;;4333146;33;20178;-82
2021/09/13 12:51:11;;;;;;;3.95;1.10;;;;;;;;;;4332698;33;20132;-83
2021/09/13 12:53:36;;;;;;;1.50;0.80;;;;;;;;;;4341869;33;20160;-82
2021/09/13 12:56:12;;;;;;;1.87;0.70;;;;;;;;;;4347070;33;20482;-83
2021/09/13 12:58:43;;;;;;;2.40;0.80;;;;;;;;;;4347657;33;20142;-83
2021/09/13 13:01:25;;;;;;;1.98;0.80;;;;;;;;;;4347966;33;20143;-82
2021/09/13 13:04:00;;;;;;;2.35;0.73;;;;;;;;;;4347805;33;20158;-82
2021/09/13 13:06:25;;;;;;;1.87;0.60;;;;;;;;;;4347441;33;20147;-82
2021/09/13 13:08:50;;;;;;;1.95;0.50;;;;;;;;;;4347254;33;20168;-81
2021/09/13 13:11:16;;;;;;;1.70;0.60;;;;;;;;;;4347515;33;20190;-84
2021/09/13 13:13:41;;;;;;;0.95;0.52;;;;;;;;;;4347089;33;20199;-82
2021/09/13 13:16:07;;;;;;;4.43;0.70;;;;;;;;;;4347335;33;20143;-82
2021/09/13 13:18:32;;;;;;;1.40;0.62;;;;;;;;;;4347538;33;20478;-82
2021/09/13 13:21:08;;;;;;;2.00;0.80;;;;;;;;;;4347109;33;20187;-83
2021/09/13 13:23:33;;;;;;;1.20;0.50;;;;;;;;;;4347576;33;20217;-82
2021/09/13 13:25:59;;;;;;;0.47;0.30;;;;;;;;;;4347244;33;20163;-84
2021/09/13 13:28:26;;;;;;;1.40;0.40;;;;;;;;;;4343645;33;20167;-83
2021/09/13 13:30:51;;;;;;;1.17;0.50;;;;;;;;;;4347124;33;20152;-84
2021/09/13 13:33:17;;;;;;;2.00;0.80;;;;;;;;;;4347192;33;20194;-82
2021/09/13 13:35:42;;;;;;;1.70;0.50;;;;;;;;;;4333286;33;20272;-83
2021/09/13 13:38:08;;;;;;;2.08;0.90;;;;;;;;;;4333171;33;20167;-83
2021/09/13 13:40:34;;;;;;;2.85;0.77;;;;;;;;;;4346941;33;20175;-82
2021/09/13 13:42:59;;;;;;;2.95;0.70;;;;;;;;;;4346219;33;20139;-83
2021/09/13 13:45:25;;;;;;;0.50;0.40;;;;;;;;;;4347128;33;20187;-82
2021/09/13 13:47:52;;;;;;;2.05;0.77;;;;;;;;;;4346865;33;20140;-84
2021/09/13 13:50:21;;;;;;;1.02;0.60;;;;;;;;;;4346421;33;20549;-82
2021/09/13 13:52:47;;;;;;;3.20;1.75;;;;;;;;;;4346614;33;20156;-82
2021/09/13 13:55:13;;;;;;;2.12;0.60;;;;;;;;;;4346226;33;20211;-83
2021/09/13 13:57:38;;;;;;;2.87;0.70;;;;;;;;;;4347010;33;20580;-83
2021/09/13 14:00:07;;;;;;;5.15;0.90;;;;;;;;;;4347098;33;20597;-79
2021/09/13 14:02:33;;;;;;;2.62;0.52;;;;;;;;;;4333240;33;20159;-82
2021/09/13 14:05:00;;;;;;;0.75;0.50;;;;;;;;;;4346693;33;20173;-83
2021/09/13 14:07:26;;;;;;;1.23;0.60;;;;;;;;;;4332857;33;20278;-83
2021/09/13 14:10:00;;;;;;;2.17;0.60;;;;;;;;;;4332776;33;20179;-82
2021/09/13 14:12:26;;;;;;;1.77;0.60;;;;;;;;;;4347832;33;20185;-82
2021/09/13 14:15:01;;;;;;;1.05;0.70;;;;;;;;;;4346946;33;20147;-82
2021/09/13 14:17:26;;;;;;;1.42;0.75;;;;;;;;;;4333060;33;20500;-84
2021/09/13 14:19:51;;;;;;;2.20;0.80;;;;;;;;;;4346518;33;20162;-85
2021/09/13 14:22:17;;;;;;;2.67;1.00;;;;;;;;;;4346345;33;20143;-83
2021/09/13 14:24:42;;;;;;;1.75;0.95;;;;;;;;;;4345997;33;20493;-83
2021/09/13 14:27:09;;;;;;;2.58;1.30;;;;;;;;;;4346595;33;20143;-82
2021/09/13 14:29:35;;;;;;;2.12;1.00;;;;;;;;;;4345994;33;20167;-83
2021/09/13 14:32:04;;;;;;;3.95;0.80;;;;;;;;;;4346095;33;20144;-82
2021/09/13 14:34:29;;;;;;;3.35;1.00;;;;;;;;;;4345680;33;20182;-83
2021/09/13 14:36:55;;;;;;;2.28;1.17;;;;;;;;;;4345839;33;20453;-83
2021/09/13 14:39:23;;;;;;;2.12;1.20;;;;;;;;;;4345758;33;20139;-82
2021/09/13 14:41:49;;;;;;;2.78;1.67;;;;;;;;;;4345810;33;20151;-82
2021/09/13 14:44:14;;;;;;;2.90;1.42;;;;;;;;;;4346060;33;20160;-83
2021/09/13 14:46:40;;;;;;;1.58;1.02;;;;;;;;;;4345650;33;20140;-83
2021/09/13 14:49:05;;;;;;;3.72;1.30;;;;;;;;;;4346005;33;20482;-82
2021/09/13 14:51:30;;;;;;;2.58;1.33;;;;;;;;;;4346113;33;20148;-82
2021/09/13 14:54:03;;;;;;;4.28;1.15;;;;;;;;;;4345367;33;20224;-84
2021/09/13 14:56:28;;;;;;;3.75;1.50;;;;;;;;;;4345795;33;20140;-83
2021/09/13 14:58:56;;;;;;;4.75;1.20;;;;;;;;;;4345906;33;20435;-83
2021/09/13 15:01:21;;;;;;;2.22;1.27;;;;;;;;;;4345384;33;20570;-82
2021/09/13 15:03:49;;;;;;;3.72;1.65;;;;;;;;;;4345713;33;20231;-82
2021/09/13 15:06:15;;;;;;;3.95;1.80;;;;;;;;;;4345743;33;20198;-83
2021/09/13 15:08:45;;;;;;;3.50;1.52;;;;;;;;;;4345350;33;20163;-83
2021/09/13 15:11:10;;;;;;;3.40;1.50;;;;;;;;;;4345740;33;20163;-83
2021/09/13 15:13:41;;;;;;;5.53;1.70;;;;;;;;;;4345826;33;20170;-83
2021/09/13 15:16:06;;;;;;;3.97;1.50;;;;;;;;;;4346216;33;20159;-83
2021/09/13 15:18:31;;;;;;;2.97;1.60;;;;;;;;;;4345599;33;20140;-85